Time;durP1;ratioP1;P1;durP2;ratioP2;P2;SDS_P1;SDS_P2;PMS_P1;PMS_P2;Temp;Humidity;BMP_temperature;BMP_pressure;BME280_temperature;BME280_humidity;BME280_pressure;Samples;Min_cycle;Max_cycle;Signal;HPM_P1;HPM_P2
2023/05/06 00:02:10;;;;;;;1.23;1.10;;;22.50;70.30;;;;;;4939994;29;20454;-84
2023/05/06 00:04:38;;;;;;;1.20;1.00;;;22.50;70.30;;;;;;4939975;29;20449;-84
2023/05/06 00:07:05;;;;;;;1.10;1.00;;;22.50;70.40;;;;;;4940947;29;20487;-85
2023/05/06 00:09:31;;;;;;;1.20;1.10;;;22.50;70.30;;;;;;4940125;29;20443;-85
2023/05/06 00:11:58;;;;;;;1.10;1.00;;;22.50;70.30;;;;;;4940049;29;20454;-84
2023/05/06 00:14:26;;;;;;;1.40;1.20;;;22.60;70.50;;;;;;4941648;29;20443;-96
2023/05/06 00:16:53;;;;;;;1.20;1.07;;;22.50;70.30;;;;;;4941098;29;20808;-84
2023/05/06 00:19:20;;;;;;;1.33;1.23;;;22.50;70.30;;;;;;4941408;29;20453;-84
2023/05/06 00:21:47;;;;;;;1.20;1.07;;;22.40;70.20;;;;;;4939997;29;20485;-85
2023/05/06 00:24:14;;;;;;;1.30;1.10;;;22.40;70.20;;;;;;4940721;29;20470;-84
2023/05/06 00:26:41;;;;;;;1.70;0.90;;;22.40;70.20;;;;;;4940924;29;20450;-85
2023/05/06 00:29:07;;;;;;;1.10;1.00;;;22.50;70.30;;;;;;4941034;29;20486;-85
2023/05/06 00:31:35;;;;;;;1.50;1.10;;;22.40;70.10;;;;;;4940812;29;20451;-85
2023/05/06 00:34:02;;;;;;;3.30;1.20;;;22.40;70.20;;;;;;4941185;29;20521;-85
2023/05/06 00:36:30;;;;;;;1.60;1.43;;;22.50;70.30;;;;;;4942596;29;20453;-85
2023/05/06 00:38:57;;;;;;;1.30;0.87;;;22.40;70.20;;;;;;4940797;29;20473;-94
2023/05/06 00:41:24;;;;;;;2.53;1.20;;;22.40;70.20;;;;;;4941122;29;20446;-84
2023/05/06 00:43:50;;;;;;;1.20;1.03;;;22.40;70.10;;;;;;4940004;29;20442;-85
2023/05/06 00:46:18;;;;;;;1.20;0.90;;;22.40;70.20;;;;;;4940452;29;20822;-92
2023/05/06 00:48:46;;;;;;;1.33;1.00;;;22.40;70.20;;;;;;4940044;29;20486;-84
2023/05/06 00:51:13;;;;;;;1.30;0.97;;;22.40;70.20;;;;;;4939503;29;20450;-96
2023/05/06 00:53:40;;;;;;;1.33;1.20;;;22.40;70.20;;;;;;4940932;29;20454;-84
2023/05/06 00:56:08;;;;;;;1.10;1.00;;;22.40;70.20;;;;;;4939163;29;20463;-84
2023/05/06 00:58:34;;;;;;;1.53;1.30;;;22.40;70.10;;;;;;4939524;29;20938;-85
2023/05/06 01:01:02;;;;;;;1.30;1.20;;;22.60;70.40;;;;;;4939488;29;20451;-84
2023/05/06 01:03:30;;;;;;;1.20;0.97;;;22.40;70.10;;;;;;4939581;29;20443;-85
2023/05/06 01:06:07;;;;;;;1.30;1.00;;;22.40;70.10;;;;;;4939597;29;20455;-95
2023/05/06 01:08:41;;;;;;;1.50;1.20;;;22.40;70.20;;;;;;4940638;29;20545;-84
2023/05/06 01:11:14;;;;;;;1.30;1.20;;;22.40;70.20;;;;;;4940465;29;20454;-96
2023/05/06 01:13:48;;;;;;;1.10;1.00;;;22.40;70.20;;;;;;4938771;29;20443;-84
2023/05/06 01:16:19;;;;;;;1.60;1.50;;;22.40;70.20;;;;;;4939654;29;20446;-84
2023/05/06 01:18:48;;;;;;;1.20;1.00;;;22.40;70.10;;;;;;4939343;29;20446;-96
2023/05/06 01:21:17;;;;;;;1.40;1.20;;;22.40;70.20;;;;;;4939817;29;20812;-84
2023/05/06 01:23:52;;;;;;;1.20;0.97;;;22.40;70.10;;;;;;4938515;29;20542;-84
2023/05/06 01:26:18;;;;;;;1.10;0.90;;;22.40;70.10;;;;;;4938576;29;20450;-84
2023/05/06 01:28:45;;;;;;;1.20;1.10;;;22.40;70.20;;;;;;4939498;29;20487;-84
2023/05/06 01:31:17;;;;;;;1.20;1.00;;;22.40;70.10;;;;;;4938886;29;20454;-84
2023/05/06 01:33:50;;;;;;;1.20;1.10;;;22.40;70.10;;;;;;4940090;29;20450;-84
2023/05/06 01:36:25;;;;;;;1.40;1.20;;;22.40;70.20;;;;;;4939907;29;20465;-85
2023/05/06 01:38:59;;;;;;;1.10;0.90;;;22.30;70.00;;;;;;4937849;29;20478;-84
2023/05/06 01:41:27;;;;;;;1.10;1.00;;;22.30;70.10;;;;;;4938477;29;20931;-84
2023/05/06 01:43:54;;;;;;;1.30;1.20;;;22.30;70.00;;;;;;4938537;29;20809;-84
2023/05/06 01:46:24;;;;;;;1.43;1.33;;;22.30;70.10;;;;;;4939648;29;20455;-84
2023/05/06 01:48:54;;;;;;;1.47;1.37;;;22.40;70.20;;;;;;4938432;29;20486;-84
2023/05/06 01:51:22;;;;;;;1.10;1.00;;;22.30;70.10;;;;;;4938577;29;20443;-96
2023/05/06 01:53:49;;;;;;;1.40;1.30;;;22.40;70.10;;;;;;4938793;29;20458;-84
2023/05/06 01:56:17;;;;;;;1.30;1.20;;;22.30;70.00;;;;;;4938402;29;20447;-84
2023/05/06 01:58:44;;;;;;;1.20;1.10;;;22.30;70.10;;;;;;4939304;29;20447;-84
2023/05/06 02:01:11;;;;;;;1.30;1.13;;;22.30;70.00;;;;;;4937892;29;20443;-85
2023/05/06 02:03:38;;;;;;;1.30;1.10;;;22.30;70.00;;;;;;4938405;29;20477;-87
2023/05/06 02:06:04;;;;;;;1.10;1.00;;;22.30;70.00;;;;;;4938824;29;20546;-84
2023/05/06 02:08:31;;;;;;;1.10;1.00;;;22.30;70.10;;;;;;4938964;29;21024;-84
2023/05/06 02:10:58;;;;;;;1.23;1.10;;;22.30;70.00;;;;;;4937748;29;20559;-84
2023/05/06 02:13:26;;;;;;;1.37;1.10;;;22.30;70.00;;;;;;4938753;29;20454;-84
2023/05/06 02:15:53;;;;;;;2.40;1.00;;;22.30;70.00;;;;;;4938190;29;20526;-84
2023/05/06 02:18:20;;;;;;;1.30;1.20;;;22.30;70.00;;;;;;4938075;29;20443;-84
2023/05/06 02:20:47;;;;;;;1.20;1.10;;;22.30;70.00;;;;;;4939370;29;20448;-84
2023/05/06 02:23:13;;;;;;;1.40;1.30;;;22.30;70.00;;;;;;4937896;29;20478;-96
2023/05/06 02:25:40;;;;;;;1.40;1.10;;;22.30;70.00;;;;;;4939147;29;20458;-85
2023/05/06 02:28:07;;;;;;;1.80;1.23;;;22.30;70.00;;;;;;4938335;29;20490;-84
2023/05/06 02:30:35;;;;;;;1.20;1.10;;;22.30;70.00;;;;;;4938097;29;20447;-96
2023/05/06 02:33:02;;;;;;;1.10;1.00;;;22.30;70.00;;;;;;4939385;29;20450;-96
2023/05/06 02:35:29;;;;;;;1.00;0.80;;;22.30;70.00;;;;;;4938789;29;20454;-85
2023/05/06 02:37:55;;;;;;;1.40;1.30;;;22.30;70.00;;;;;;4938124;29;20471;-94
2023/05/06 02:40:22;;;;;;;1.20;1.10;;;22.30;70.10;;;;;;4936693;29;20450;-84
2023/05/06 02:42:49;;;;;;;1.30;1.17;;;22.20;69.90;;;;;;4938891;29;20439;-84
2023/05/06 02:45:16;;;;;;;1.30;1.20;;;22.20;69.90;;;;;;4941630;29;20458;-96
2023/05/06 02:47:44;;;;;;;1.33;1.23;;;22.20;69.90;;;;;;4939162;29;20466;-84
2023/05/06 02:50:11;;;;;;;1.30;1.20;;;22.20;69.90;;;;;;4938503;29;20459;-90
2023/05/06 02:52:38;;;;;;;1.63;1.20;;;22.20;69.90;;;;;;4937633;29;20546;-84
2023/05/06 02:55:06;;;;;;;1.40;1.30;;;22.20;69.80;;;;;;4940059;29;20447;-84
2023/05/06 02:57:33;;;;;;;1.30;1.10;;;22.20;69.90;;;;;;4941244;29;20438;-96
2023/05/06 03:00:00;;;;;;;1.10;0.90;;;22.20;69.90;;;;;;4939298;29;20443;-93
2023/05/06 03:02:26;;;;;;;1.20;0.97;;;22.20;70.20;;;;;;4937930;29;20492;-95
2023/05/06 03:04:55;;;;;;;1.20;1.07;;;22.20;69.90;;;;;;4937646;29;20461;-84
2023/05/06 03:07:21;;;;;;;1.30;1.20;;;22.20;69.90;;;;;;4938191;29;20468;-84
2023/05/06 03:09:48;;;;;;;1.30;1.10;;;22.20;69.90;;;;;;4938380;29;20487;-84
2023/05/06 03:12:15;;;;;;;1.20;1.00;;;22.40;70.10;;;;;;4939890;29;20557;-96
2023/05/06 03:14:42;;;;;;;1.73;1.03;;;22.20;69.90;;;;;;4938002;29;20927;-94
2023/05/06 03:17:08;;;;;;;1.30;1.20;;;22.20;69.90;;;;;;4939255;29;20454;-84
2023/05/06 03:19:35;;;;;;;1.10;0.90;;;22.20;69.90;;;;;;4938975;29;20443;-85
2023/05/06 03:22:03;;;;;;;1.20;1.10;;;22.20;69.90;;;;;;4938086;29;20534;-84
2023/05/06 03:24:30;;;;;;;1.50;1.40;;;22.20;69.90;;;;;;4936625;29;20481;-96
2023/05/06 03:26:57;;;;;;;1.20;1.10;;;22.20;69.90;;;;;;4937241;29;20447;-84
2023/05/06 03:29:24;;;;;;;1.43;1.33;;;22.20;69.80;;;;;;4937691;29;21009;-84
2023/05/06 03:31:50;;;;;;;1.30;1.20;;;22.20;69.80;;;;;;4937718;29;20804;-84
2023/05/06 03:34:17;;;;;;;1.30;1.13;;;22.20;69.80;;;;;;4937768;29;20447;-96
2023/05/06 03:36:45;;;;;;;1.30;1.20;;;22.20;69.90;;;;;;4937620;29;20461;-95
2023/05/06 03:39:14;;;;;;;1.30;1.20;;;22.20;69.90;;;;;;4938501;29;20942;-85
2023/05/06 03:41:40;;;;;;;1.30;1.10;;;22.20;69.90;;;;;;4938133;29;20469;-84
2023/05/06 03:44:07;;;;;;;1.30;1.00;;;22.20;69.80;;;;;;4937734;29;20449;-96
2023/05/06 03:46:34;;;;;;;1.30;0.90;;;22.20;69.80;;;;;;4938590;29;20450;-96
2023/05/06 03:49:01;;;;;;;1.43;1.30;;;22.20;69.90;;;;;;4937503;29;20490;-84
2023/05/06 03:51:28;;;;;;;1.20;0.97;;;22.10;69.70;;;;;;4940284;29;20489;-83
2023/05/06 03:53:55;;;;;;;1.40;1.27;;;22.30;70.00;;;;;;4939184;29;20457;-96
2023/05/06 03:56:23;;;;;;;1.40;1.30;;;22.10;69.70;;;;;;4944148;29;20446;-96
2023/05/06 03:58:50;;;;;;;1.63;1.00;;;22.10;69.70;;;;;;4938140;29;20457;-83
2023/05/06 04:01:17;;;;;;;1.50;1.40;;;22.10;69.70;;;;;;4935529;29;20830;-83
2023/05/06 04:03:44;;;;;;;1.20;1.00;;;22.10;69.60;;;;;;4936138;29;20443;-83
2023/05/06 04:06:10;;;;;;;1.20;1.00;;;22.10;69.70;;;;;;4939116;29;20445;-85
2023/05/06 04:08:37;;;;;;;1.23;1.13;;;22.10;69.60;;;;;;4947925;29;20483;-84
2023/05/06 04:11:04;;;;;;;1.30;1.10;;;22.10;69.60;;;;;;4947169;29;20438;-84
2023/05/06 04:13:33;;;;;;;1.40;1.30;;;22.10;69.70;;;;;;4943601;29;20446;-84
2023/05/06 04:16:00;;;;;;;1.43;1.07;;;22.10;69.60;;;;;;4940344;29;20451;-84
2023/05/06 04:18:31;;;;;;;1.30;1.10;;;22.10;69.60;;;;;;4950515;29;20466;-96
2023/05/06 04:20:59;;;;;;;1.40;1.30;;;22.10;69.60;;;;;;4945626;29;20442;-96
2023/05/06 04:23:30;;;;;;;1.10;0.90;;;22.10;69.60;;;;;;4946404;29;20465;-84
2023/05/06 04:25:56;;;;;;;1.40;1.30;;;22.10;69.60;;;;;;4943162;29;20454;-83
2023/05/06 04:28:23;;;;;;;1.20;1.00;;;22.10;69.60;;;;;;4946347;29;20483;-96
2023/05/06 04:31:10;;;;;;;1.40;1.30;;;22.10;69.60;;;;;;4943037;29;20474;-84
2023/05/06 04:33:37;;;;;;;1.60;1.10;;;22.10;69.60;;;;;;4958450;29;20524;-84
2023/05/06 04:36:06;;;;;;;1.93;1.40;;;22.10;69.70;;;;;;4959918;29;20492;-96
2023/05/06 04:38:34;;;;;;;1.40;1.30;;;22.10;69.70;;;;;;4962793;28;20475;-96
2023/05/06 04:41:10;;;;;;;1.30;1.20;;;22.30;69.90;;;;;;4968686;28;20458;-96
2023/05/06 04:43:37;;;;;;;1.63;1.30;;;22.10;69.70;;;;;;4961839;29;21004;-85
2023/05/06 04:49:32;;;;;;;1.57;1.20;;;22.10;69.70;;;;;;4921676;29;20514;-92
2023/05/06 04:51:58;;;;;;;1.40;1.30;;;22.00;69.60;;;;;;4921868;29;20471;-93
2023/05/06 04:54:25;;;;;;;1.10;1.00;;;22.00;69.70;;;;;;4921710;29;20470;-85
2023/05/06 04:56:52;;;;;;;1.33;1.20;;;22.00;69.60;;;;;;4922911;29;20454;-85
2023/05/06 04:59:18;;;;;;;1.30;1.03;;;22.00;69.70;;;;;;4920667;29;20985;-84
2023/05/06 05:01:45;;;;;;;1.13;1.03;;;22.10;69.80;;;;;;4921920;29;20448;-85
2023/05/06 05:04:12;;;;;;;1.33;1.20;;;22.00;69.70;;;;;;4919799;29;20459;-85
2023/05/06 05:06:40;;;;;;;1.23;1.13;;;22.00;69.70;;;;;;4921043;29;20444;-84
2023/05/06 05:09:07;;;;;;;1.30;1.07;;;22.00;69.70;;;;;;4919997;29;20487;-85
2023/05/06 05:11:36;;;;;;;1.40;1.10;;;22.00;69.70;;;;;;4920598;29;20539;-85
2023/05/06 05:14:03;;;;;;;1.20;0.97;;;22.20;69.90;;;;;;4921436;29;20476;-96
2023/05/06 05:16:30;;;;;;;1.40;1.13;;;22.20;69.90;;;;;;4921848;29;20538;-85
2023/05/06 05:18:57;;;;;;;1.50;1.37;;;22.00;69.60;;;;;;4921979;29;20450;-85
2023/05/06 05:21:24;;;;;;;1.50;1.40;;;22.00;69.60;;;;;;4921440;29;20812;-85
2023/05/06 05:23:52;;;;;;;1.30;1.20;;;22.00;69.60;;;;;;4919721;29;20479;-84
2023/05/06 05:26:19;;;;;;;1.27;1.10;;;22.00;69.60;;;;;;4921027;29;20448;-85
2023/05/06 05:28:45;;;;;;;1.30;1.00;;;22.00;69.60;;;;;;4922133;29;20883;-84
2023/05/06 05:31:12;;;;;;;1.47;1.30;;;22.00;70.40;;;;;;4920671;29;20445;-85
2023/05/06 05:33:39;;;;;;;1.50;1.20;;;22.10;69.70;;;;;;4920984;29;20452;-92
2023/05/06 05:36:06;;;;;;;1.37;1.27;;;22.00;69.60;;;;;;4920362;29;20451;-86
2023/05/06 05:38:33;;;;;;;1.20;1.00;;;22.00;69.60;;;;;;4921394;29;20472;-85
2023/05/06 05:41:01;;;;;;;1.50;1.40;;;22.00;69.60;;;;;;4920582;29;20454;-85
2023/05/06 05:43:30;;;;;;;1.67;1.17;;;22.00;69.60;;;;;;4921241;29;20939;-96
2023/05/06 05:45:56;;;;;;;1.20;1.10;;;22.00;69.60;;;;;;4921139;29;20444;-85
2023/05/06 05:48:23;;;;;;;1.40;1.20;;;22.10;69.80;;;;;;4920317;29;20440;-85
2023/05/06 05:50:50;;;;;;;1.37;1.13;;;22.00;69.70;;;;;;4920051;29;21012;-89
2023/05/06 05:53:17;;;;;;;1.30;1.13;;;22.00;69.60;;;;;;4919717;29;20459;-85
2023/05/06 05:55:44;;;;;;;1.10;1.00;;;22.00;69.70;;;;;;4919349;29;20451;-85
2023/05/06 05:58:12;;;;;;;1.40;1.30;;;22.00;69.70;;;;;;4920241;29;20459;-85
2023/05/06 06:00:40;;;;;;;1.30;1.20;;;22.00;69.70;;;;;;4919664;29;20462;-84
2023/05/06 06:03:07;;;;;;;1.27;1.10;;;22.00;69.60;;;;;;4919491;29;20453;-94
2023/05/06 06:05:34;;;;;;;1.50;1.40;;;22.00;69.60;;;;;;4919037;29;20447;-85
2023/05/06 06:08:01;;;;;;;1.30;1.20;;;22.00;69.70;;;;;;4919691;29;20468;-85
2023/05/06 06:10:27;;;;;;;1.10;1.00;;;22.00;69.70;;;;;;4918598;29;20503;-85
2023/05/06 06:12:54;;;;;;;1.53;1.43;;;22.00;69.70;;;;;;4918832;29;20546;-81
2023/05/06 06:15:22;;;;;;;1.40;1.30;;;22.00;69.50;;;;;;4918609;29;20444;-83
2023/05/06 06:17:49;;;;;;;1.30;1.13;;;22.00;69.20;;;;;;4918126;29;20452;-84
2023/05/06 06:20:16;;;;;;;2.70;1.50;;;22.00;69.40;;;;;;4919493;29;20448;-84
2023/05/06 06:22:43;;;;;;;8.20;7.10;;;22.20;69.00;;;;;;4918418;29;20454;-85
2023/05/06 06:25:10;;;;;;;7.30;6.60;;;22.00;70.70;;;;;;4921406;29;20444;-84
2023/05/06 06:27:37;;;;;;;7.47;6.87;;;21.90;71.60;;;;;;4919609;29;20503;-85
2023/05/06 06:30:04;;;;;;;7.10;5.13;;;21.80;71.80;;;;;;4918596;29;20499;-94
2023/05/06 06:32:32;;;;;;;7.07;5.70;;;21.80;71.50;;;;;;4918343;29;20456;-83
2023/05/06 06:34:59;;;;;;;7.30;6.17;;;21.80;71.50;;;;;;4918063;29;20444;-82
2023/05/06 06:37:26;;;;;;;4.70;4.30;;;21.80;72.20;;;;;;4918366;29;20877;-84
2023/05/06 06:39:52;;;;;;;5.97;3.30;;;21.80;71.80;;;;;;4921440;29;20458;-84
2023/05/06 06:42:19;;;;;;;6.70;6.03;;;22.00;71.60;;;;;;4922702;29;20455;-96
2023/05/06 06:44:46;;;;;;;6.00;5.40;;;21.80;72.60;;;;;;4922819;29;20568;-84
2023/05/06 06:47:13;;;;;;;5.60;5.03;;;21.70;72.60;;;;;;4923422;29;20440;-93
2023/05/06 06:49:41;;;;;;;4.10;3.77;;;21.80;72.20;;;;;;4921047;29;20495;-89
2023/05/06 06:52:08;;;;;;;3.37;3.07;;;21.80;71.90;;;;;;4922525;29;20462;-84
2023/05/06 06:54:37;;;;;;;2.50;2.30;;;21.80;71.00;;;;;;4921838;29;20444;-91
2023/05/06 06:57:05;;;;;;;2.43;2.33;;;21.80;70.60;;;;;;4907857;29;20451;-94
2023/05/06 06:59:32;;;;;;;3.07;2.30;;;22.00;70.40;;;;;;4921329;29;20892;-84
2023/05/06 07:01:59;;;;;;;2.40;2.20;;;21.90;70.10;;;;;;4921566;29;20498;-84
2023/05/06 07:04:26;;;;;;;2.20;2.00;;;21.90;70.00;;;;;;4922772;29;20447;-84
2023/05/06 07:06:54;;;;;;;2.50;2.30;;;21.90;69.90;;;;;;4920051;29;20463;-86
2023/05/06 07:09:20;;;;;;;2.33;2.13;;;22.00;69.80;;;;;;4920321;29;20486;-84
2023/05/06 07:11:48;;;;;;;2.30;2.10;;;22.00;69.80;;;;;;4918871;29;20448;-85
2023/05/06 07:14:14;;;;;;;2.20;2.00;;;22.00;69.70;;;;;;4923704;29;20444;-85
2023/05/06 07:16:41;;;;;;;1.70;1.60;;;22.00;69.60;;;;;;4923215;29;20959;-84
2023/05/06 07:19:08;;;;;;;2.37;1.50;;;22.00;69.50;;;;;;4922398;29;20452;-96
2023/05/06 07:21:35;;;;;;;2.20;2.00;;;22.10;69.60;;;;;;4921320;29;20543;-85
2023/05/06 07:24:03;;;;;;;1.70;1.60;;;22.00;69.50;;;;;;4921006;29;20499;-84
2023/05/06 07:26:30;;;;;;;7.63;5.80;;;22.10;69.50;;;;;;4920787;29;20444;-84
2023/05/06 07:28:56;;;;;;;12.00;5.97;;;22.10;71.90;;;;;;4921632;29;20530;-83
2023/05/06 07:31:23;;;;;;;5.80;4.33;;;22.00;72.90;;;;;;4919734;29;20488;-84
2023/05/06 07:33:50;;;;;;;5.30;3.60;;;22.10;72.00;;;;;;4922477;29;20574;-84
2023/05/06 07:36:17;;;;;;;2.73;2.53;;;22.20;71.60;;;;;;4920767;29;20450;-90
2023/05/06 07:38:44;;;;;;;1.80;1.70;;;22.10;70.80;;;;;;4920164;29;20455;-84
2023/05/06 07:41:12;;;;;;;2.43;2.23;;;22.10;70.40;;;;;;4923005;29;20459;-86
2023/05/06 07:43:39;;;;;;;2.20;2.00;;;22.10;70.20;;;;;;4936943;29;20466;-93
2023/05/06 07:46:06;;;;;;;4.73;2.60;;;22.30;70.90;;;;;;4954066;29;20449;-86
2023/05/06 07:48:33;;;;;;;1.90;1.80;;;22.10;70.60;;;;;;4957117;29;20473;-83
2023/05/06 07:51:00;;;;;;;7.33;2.30;;;22.20;71.10;;;;;;4962857;29;20494;-88
2023/05/06 07:53:27;;;;;;;2.47;2.13;;;22.20;71.30;;;;;;4962070;29;20448;-83
2023/05/06 07:55:57;;;;;;;2.30;1.77;;;22.20;71.30;;;;;;4954941;29;20798;-83
2023/05/06 07:58:25;;;;;;;2.00;1.80;;;22.20;71.40;;;;;;4955082;29;20534;-94
2023/05/06 08:00:52;;;;;;;2.10;1.90;;;22.20;71.40;;;;;;4946640;29;20444;-82
2023/05/06 08:03:19;;;;;;;2.47;1.60;;;22.30;71.50;;;;;;4936161;29;20937;-89
2023/05/06 08:05:46;;;;;;;2.10;1.90;;;22.20;71.50;;;;;;4936079;29;20942;-88
2023/05/06 08:11:35;;;;;;;3.10;1.73;;;22.30;71.70;;;;;;4937468;29;20992;-82
2023/05/06 08:14:03;;;;;;;2.00;1.90;;;22.30;71.70;;;;;;4940049;29;20455;-83
2023/05/06 08:16:30;;;;;;;2.40;2.20;;;22.40;71.90;;;;;;4935718;29;20466;-84
2023/05/06 08:18:57;;;;;;;1.40;1.30;;;22.60;72.10;;;;;;4919632;29;20463;-82
2023/05/06 08:21:24;;;;;;;4.30;1.43;;;22.40;71.20;;;;;;4920079;29;20475;-82
2023/05/06 08:23:51;;;;;;;2.27;1.93;;;22.40;70.60;;;;;;4919556;29;20493;-81
2023/05/06 08:26:18;;;;;;;2.03;1.93;;;22.40;70.50;;;;;;4920023;29;20452;-81
2023/05/06 08:28:45;;;;;;;1.47;1.37;;;22.40;70.30;;;;;;4920607;29;20444;-81
2023/05/06 08:31:13;;;;;;;2.53;1.57;;;22.40;70.20;;;;;;4957844;29;21012;-84
2023/05/06 08:33:39;;;;;;;2.60;1.67;;;22.40;70.40;;;;;;4950158;29;20475;-91
2023/05/06 08:36:07;;;;;;;3.87;1.40;;;22.40;70.50;;;;;;4919500;29;20464;-83
2023/05/06 08:38:33;;;;;;;1.83;1.73;;;22.40;70.20;;;;;;4919697;29;20964;-85
2023/05/06 08:41:07;;;;;;;2.00;1.47;;;22.40;70.20;;;;;;4919790;29;20456;-89
2023/05/06 08:43:40;;;;;;;1.83;1.30;;;22.40;70.30;;;;;;4919958;29;20459;-88
2023/05/06 08:46:07;;;;;;;1.40;1.30;;;22.40;70.80;;;;;;4919940;29;20911;-88
2023/05/06 08:48:36;;;;;;;2.13;1.53;;;22.50;71.30;;;;;;4919902;29;20452;-89
2023/05/06 08:53:56;;;;;;;4.90;1.30;;;22.50;71.00;;;;;;4918214;29;20802;-89
2023/05/06 08:56:26;;;;;;;1.70;1.50;;;22.60;71.70;;;;;;4919090;29;20439;-84
2023/05/06 08:58:54;;;;;;;1.30;1.20;;;22.60;71.90;;;;;;4920043;29;20530;-84
2023/05/06 09:01:21;;;;;;;2.60;1.80;;;22.70;71.90;;;;;;4919320;29;20935;-83
2023/05/06 09:03:51;;;;;;;4.00;1.77;;;22.70;71.90;;;;;;4919135;29;20550;-83
2023/05/06 09:06:17;;;;;;;3.70;1.37;;;22.80;71.90;;;;;;4933200;28;20445;-84
2023/05/06 09:08:44;;;;;;;1.50;1.40;;;22.80;71.90;;;;;;4949057;29;20476;-82
2023/05/06 09:11:27;;;;;;;5.87;1.73;;;22.80;71.90;;;;;;4956982;29;20585;-89
2023/05/06 09:14:11;;;;;;;1.83;1.20;;;22.90;71.90;;;;;;4957599;29;20800;-89
2023/05/06 12:01:10;;;;;;;2.77;1.57;;;23.50;71.70;;;;;;4985887;28;20557;-83
2023/05/06 12:03:37;;;;;;;1.63;1.50;;;23.40;69.70;;;;;;4958798;29;20450;-85
2023/05/06 12:06:05;;;;;;;5.27;1.70;;;23.40;70.70;;;;;;4954710;28;20897;-83
2023/05/06 12:08:34;;;;;;;1.40;1.30;;;23.40;71.00;;;;;;4949891;29;21007;-84
2023/05/06 12:11:03;;;;;;;2.33;1.50;;;23.40;71.10;;;;;;4948746;29;20533;-84
2023/05/06 12:13:30;;;;;;;1.40;1.30;;;23.40;71.10;;;;;;4947776;29;20451;-83
2023/05/06 12:16:00;;;;;;;2.43;1.40;;;23.40;71.20;;;;;;4949228;29;20500;-84
2023/05/06 12:18:29;;;;;;;1.20;1.03;;;23.40;71.20;;;;;;4948259;29;20502;-84
2023/05/06 12:20:56;;;;;;;1.83;1.40;;;23.40;71.20;;;;;;4947137;29;20444;-83
2023/05/06 12:23:24;;;;;;;3.33;1.03;;;23.40;71.20;;;;;;4944562;29;20473;-84
2023/05/06 12:26:02;;;;;;;1.40;1.30;;;23.40;71.30;;;;;;4947445;29;20519;-83
2023/05/06 12:28:31;;;;;;;1.20;1.10;;;23.40;71.40;;;;;;4947857;29;20454;-84
2023/05/06 12:30:58;;;;;;;2.50;1.57;;;23.40;71.30;;;;;;4950498;29;20481;-83
2023/05/06 12:33:25;;;;;;;1.30;1.20;;;23.40;71.40;;;;;;4950531;29;20455;-84
2023/05/06 12:35:57;;;;;;;1.50;1.37;;;23.40;71.90;;;;;;4947434;28;20452;-84
2023/05/06 12:38:24;;;;;;;4.77;1.17;;;23.40;71.50;;;;;;4947484;29;20539;-84
2023/05/06 12:40:54;;;;;;;1.80;1.10;;;23.40;71.50;;;;;;4950328;29;20445;-84
2023/05/06 12:43:29;;;;;;;1.70;1.33;;;23.40;72.40;;;;;;4946834;29;20431;-84
2023/05/06 12:46:03;;;;;;;1.60;1.10;;;23.40;71.40;;;;;;4938706;29;20451;-84
2023/05/06 12:48:30;;;;;;;1.67;1.10;;;23.50;71.30;;;;;;4939005;29;20462;-84
2023/05/06 12:50:58;;;;;;;1.60;1.20;;;23.50;71.00;;;;;;4940088;29;20506;-84
2023/05/06 12:53:32;;;;;;;2.20;1.23;;;23.50;71.00;;;;;;4930580;29;20444;-83
2023/05/06 12:55:59;;;;;;;1.20;1.00;;;23.50;71.90;;;;;;4941495;29;20447;-84
2023/05/06 12:58:26;;;;;;;1.43;1.30;;;23.50;71.20;;;;;;4938165;29;20453;-84
2023/05/06 13:00:53;;;;;;;1.10;0.93;;;23.60;71.10;;;;;;4937445;29;20448;-84
2023/05/06 13:03:19;;;;;;;1.70;1.40;;;23.60;71.10;;;;;;4938030;29;20970;-84
2023/05/06 13:05:48;;;;;;;3.27;1.50;;;23.60;71.10;;;;;;4938716;29;20461;-84
2023/05/06 13:08:16;;;;;;;2.90;1.10;;;23.60;71.00;;;;;;4937302;29;20925;-84
2023/05/06 13:10:43;;;;;;;2.23;1.20;;;23.60;70.90;;;;;;4937262;29;20502;-85
2023/05/06 13:13:10;;;;;;;2.37;0.90;;;23.60;71.00;;;;;;4938308;29;20451;-84
2023/05/06 13:15:37;;;;;;;2.13;0.90;;;23.60;71.00;;;;;;4937529;29;20440;-83
2023/05/06 13:18:05;;;;;;;3.00;1.20;;;23.60;71.00;;;;;;4937028;29;20448;-83
2023/05/06 13:20:32;;;;;;;1.83;1.07;;;23.60;71.00;;;;;;4938173;29;20451;-86
2023/05/06 13:22:59;;;;;;;1.70;0.80;;;23.60;70.90;;;;;;4938231;29;20455;-86
2023/05/06 13:25:27;;;;;;;1.37;1.00;;;23.60;69.10;;;;;;4938332;29;20449;-87
2023/05/06 13:27:55;;;;;;;2.57;0.97;;;23.60;68.40;;;;;;4938224;29;20475;-88
2023/05/06 13:30:21;;;;;;;1.60;0.90;;;23.50;68.80;;;;;;4936573;29;20886;-85
2023/05/06 13:32:48;;;;;;;4.13;1.30;;;23.40;68.00;;;;;;4935662;29;20458;-83
2023/05/06 13:35:15;;;;;;;1.67;1.10;;;23.40;69.80;;;;;;4935910;29;20529;-83
2023/05/06 13:37:42;;;;;;;1.43;1.33;;;23.50;70.20;;;;;;4936213;29;20546;-83
2023/05/06 13:40:10;;;;;;;3.67;1.23;;;23.40;70.10;;;;;;4937104;29;20442;-83
2023/05/06 13:42:38;;;;;;;1.73;1.23;;;23.50;70.20;;;;;;4937195;29;20443;-83
2023/05/06 13:45:06;;;;;;;1.10;1.00;;;23.50;70.30;;;;;;4937361;29;20454;-83
2023/05/06 13:47:33;;;;;;;1.30;0.90;;;23.50;70.30;;;;;;4938098;29;20450;-83
2023/05/06 13:50:28;;;;;;;1.17;1.00;;;23.50;70.30;;;;;;4938820;29;20444;-92
2023/05/06 16:07:50;;;;;;;3.30;1.40;;;23.10;70.20;;;;;;4935634;29;20910;-82
2023/05/06 16:10:17;;;;;;;1.53;1.13;;;23.10;70.20;;;;;;4934458;29;20808;-82
2023/05/06 16:12:43;;;;;;;1.87;1.40;;;23.20;70.20;;;;;;4935414;29;20500;-82
2023/05/06 16:15:11;;;;;;;2.17;1.40;;;23.30;70.30;;;;;;4935419;29;20450;-82
2023/05/06 16:17:37;;;;;;;1.80;1.10;;;23.20;70.10;;;;;;4935339;29;20454;-82
2023/05/06 16:20:05;;;;;;;1.73;1.00;;;23.20;70.10;;;;;;4935179;29;20451;-82
2023/05/06 16:22:32;;;;;;;3.70;1.40;;;23.20;70.10;;;;;;4934134;29;20925;-82
2023/05/06 16:25:00;;;;;;;3.10;1.47;;;23.20;70.10;;;;;;4935463;29;20965;-83
2023/05/06 16:27:27;;;;;;;1.63;1.10;;;23.20;70.10;;;;;;4934346;29;20936;-82
2023/05/06 16:29:54;;;;;;;1.20;1.10;;;23.20;70.10;;;;;;4933629;29;21014;-81
2023/05/06 16:32:21;;;;;;;2.10;1.30;;;23.20;70.10;;;;;;4933091;29;21008;-81
2023/05/06 16:34:47;;;;;;;2.10;1.53;;;23.20;70.10;;;;;;4934138;29;20460;-82
2023/05/06 16:37:15;;;;;;;4.20;1.27;;;23.20;70.20;;;;;;4937290;29;20468;-81
2023/05/06 16:39:42;;;;;;;2.57;1.40;;;23.20;70.40;;;;;;4938905;29;20539;-82
2023/05/06 16:42:10;;;;;;;2.03;1.40;;;23.20;70.40;;;;;;4938160;29;20455;-81
2023/05/06 16:44:37;;;;;;;1.30;1.00;;;23.20;70.50;;;;;;4937764;29;20459;-83
2023/05/06 16:47:04;;;;;;;2.67;1.20;;;23.20;70.50;;;;;;4937767;29;20530;-81
2023/05/06 16:49:32;;;;;;;1.93;1.20;;;23.20;70.60;;;;;;4937432;29;20542;-82
2023/05/06 16:52:00;;;;;;;2.43;1.13;;;23.20;70.60;;;;;;4937464;29;20970;-81
2023/05/06 16:54:26;;;;;;;1.57;1.20;;;23.20;70.60;;;;;;4938874;29;20448;-86
2023/05/06 16:56:53;;;;;;;2.30;1.40;;;23.20;70.60;;;;;;4938937;29;20455;-87
2023/05/06 16:59:24;;;;;;;6.00;1.30;;;23.10;70.60;;;;;;4938727;29;20517;-89
2023/05/06 17:01:51;;;;;;;3.90;1.50;;;23.20;70.50;;;;;;4939520;29;20789;-86
2023/05/06 17:04:18;;;;;;;1.80;1.10;;;23.10;70.40;;;;;;4938822;29;20455;-87
2023/05/06 17:06:45;;;;;;;2.40;1.20;;;23.10;70.30;;;;;;4938328;29;20483;-88
2023/05/06 17:09:12;;;;;;;3.63;1.00;;;23.00;70.20;;;;;;4938033;29;20541;-87
2023/05/06 17:11:38;;;;;;;2.30;1.17;;;23.00;70.40;;;;;;4937871;29;20482;-87
2023/05/06 17:14:05;;;;;;;4.77;1.50;;;23.00;71.40;;;;;;4938451;29;20546;-87
2023/05/06 17:16:33;;;;;;;5.90;1.47;;;23.10;72.00;;;;;;4937889;29;20453;-87
2023/05/06 17:19:00;;;;;;;1.90;1.23;;;23.10;71.80;;;;;;4938389;29;20462;-86
2023/05/06 17:21:27;;;;;;;1.70;1.20;;;23.10;71.90;;;;;;4938633;29;20455;-86
2023/05/06 17:23:54;;;;;;;3.10;1.63;;;23.10;72.20;;;;;;4938470;29;20498;-86
2023/05/06 17:26:21;;;;;;;1.47;1.23;;;23.10;72.40;;;;;;4938820;29;20452;-87
2023/05/06 17:28:49;;;;;;;1.77;1.53;;;23.10;72.80;;;;;;4938250;29;20453;-83
2023/05/06 17:31:16;;;;;;;2.60;1.27;;;23.10;72.90;;;;;;4938377;29;20480;-81
2023/05/06 17:33:45;;;;;;;5.97;1.53;;;23.10;72.20;;;;;;4938351;29;20444;-82
2023/05/06 17:36:12;;;;;;;1.50;0.90;;;23.10;71.50;;;;;;4938019;29;20469;-82
2023/05/06 17:38:39;;;;;;;2.63;1.20;;;23.10;71.40;;;;;;4938078;29;20961;-82
2023/05/06 17:41:06;;;;;;;3.03;1.30;;;23.20;71.90;;;;;;4938053;29;20463;-82
2023/05/06 17:43:33;;;;;;;2.57;1.47;;;23.10;73.10;;;;;;4938214;29;20455;-81
2023/05/06 17:45:59;;;;;;;3.77;1.60;;;23.10;72.60;;;;;;4937842;29;20518;-82
2023/05/06 17:48:26;;;;;;;1.40;1.07;;;23.10;72.70;;;;;;4937903;29;20444;-82
2023/05/06 17:50:59;;;;;;;1.40;1.10;;;23.30;72.80;;;;;;4937675;29;20451;-82
2023/05/06 17:53:26;;;;;;;1.37;1.20;;;23.10;72.50;;;;;;4937835;29;20448;-80
2023/05/06 17:55:52;;;;;;;1.93;1.17;;;23.20;72.60;;;;;;4937586;29;20451;-82
2023/05/06 17:58:20;;;;;;;2.60;1.20;;;23.10;72.50;;;;;;4937976;29;20444;-82
2023/05/06 18:00:46;;;;;;;2.60;1.33;;;23.10;72.50;;;;;;4939784;29;20504;-81